Terminal Aerodrome Forecast
Issued by NWS

Home | Current Version | Previous Version | Graphics & Text | Print | Product List | Glossary On
Versions: 1 2 3 4 5 6 7 8 9 10 11 12 13 14
000
FTUS41 KCLE 021123
TAFFDY
TAF
KFDY 021123Z 0212/0312 06008KT P6SM SCT035 OVC250
      TEMPO 0212/0216 BKN035
     FM021600 06010KT P6SM SCT045 BKN250
     FM022000 05014KT P6SM BKN250
     FM030100 05007KT P6SM SCT250=

USA.gov is the U.S. government's official web portal to all federal, state and local government web resources and services.